sensor_id;sensor_type;location;lat;lon;timestamp;P1;durP1;ratioP1;P2;durP2;ratioP2
2546;SDS011;1283;47.982;7.834;2023-04-03T00:00:03;5.88;;;4.28;;
2546;SDS011;1283;47.982;7.834;2023-04-03T00:02:31;6.22;;;4.40;;
2546;SDS011;1283;47.982;7.834;2023-04-03T00:04:59;7.00;;;4.85;;
2546;SDS011;1283;47.982;7.834;2023-04-03T00:07:26;7.50;;;4.32;;
2546;SDS011;1283;47.982;7.834;2023-04-03T00:09:52;5.80;;;4.55;;
2546;SDS011;1283;47.982;7.834;2023-04-03T00:12:19;8.25;;;4.95;;
2546;SDS011;1283;47.982;7.834;2023-04-03T00:14:45;7.18;;;4.80;;
2546;SDS011;1283;47.982;7.834;2023-04-03T00:17:12;7.60;;;4.25;;
2546;SDS011;1283;47.982;7.834;2023-04-03T00:19:38;6.03;;;4.32;;
2546;SDS011;1283;47.982;7.834;2023-04-03T00:22:06;6.57;;;4.55;;
2546;SDS011;1283;47.982;7.834;2023-04-03T00:24:33;7.82;;;4.80;;
2546;SDS011;1283;47.982;7.834;2023-04-03T00:26:59;7.40;;;4.85;;
2546;SDS011;1283;47.982;7.834;2023-04-03T00:29:26;10.63;;;5.47;;
2546;SDS011;1283;47.982;7.834;2023-04-03T00:31:52;6.93;;;4.40;;
2546;SDS011;1283;47.982;7.834;2023-04-03T00:34:18;9.02;;;4.40;;
2546;SDS011;1283;47.982;7.834;2023-04-03T00:36:45;7.03;;;4.97;;
2546;SDS011;1283;47.982;7.834;2023-04-03T00:39:13;6.82;;;4.82;;
2546;SDS011;1283;47.982;7.834;2023-04-03T00:41:39;6.88;;;4.88;;
2546;SDS011;1283;47.982;7.834;2023-04-03T00:44:22;6.70;;;4.43;;
2546;SDS011;1283;47.982;7.834;2023-04-03T00:47:10;6.47;;;4.30;;
2546;SDS011;1283;47.982;7.834;2023-04-03T00:49:37;7.47;;;4.20;;
2546;SDS011;1283;47.982;7.834;2023-04-03T00:52:04;7.38;;;4.50;;
2546;SDS011;1283;47.982;7.834;2023-04-03T00:54:33;8.63;;;3.90;;
2546;SDS011;1283;47.982;7.834;2023-04-03T00:57:01;7.82;;;4.47;;
2546;SDS011;1283;47.982;7.834;2023-04-03T00:59:29;5.57;;;3.90;;
2546;SDS011;1283;47.982;7.834;2023-04-03T01:01:57;5.78;;;4.00;;
2546;SDS011;1283;47.982;7.834;2023-04-03T01:04:28;7.47;;;4.22;;
2546;SDS011;1283;47.982;7.834;2023-04-03T01:06:56;5.13;;;3.78;;
2546;SDS011;1283;47.982;7.834;2023-04-03T01:09:24;4.85;;;3.70;;
2546;SDS011;1283;47.982;7.834;2023-04-03T01:11:53;5.95;;;3.88;;
2546;SDS011;1283;47.982;7.834;2023-04-03T01:14:19;5.00;;;3.65;;
2546;SDS011;1283;47.982;7.834;2023-04-03T01:16:51;7.75;;;4.25;;
2546;SDS011;1283;47.982;7.834;2023-04-03T01:19:18;7.50;;;4.03;;
2546;SDS011;1283;47.982;7.834;2023-04-03T01:21:56;4.93;;;3.90;;
2546;SDS011;1283;47.982;7.834;2023-04-03T01:24:37;5.72;;;3.90;;
2546;SDS011;1283;47.982;7.834;2023-04-03T01:27:06;6.55;;;4.03;;
2546;SDS011;1283;47.982;7.834;2023-04-03T01:29:34;7.57;;;3.88;;
2546;SDS011;1283;47.982;7.834;2023-04-03T01:32:02;5.43;;;3.78;;
2546;SDS011;1283;47.982;7.834;2023-04-03T01:34:29;6.85;;;4.20;;
2546;SDS011;1283;47.982;7.834;2023-04-03T01:36:56;5.32;;;3.72;;
2546;SDS011;1283;47.982;7.834;2023-04-03T01:39:23;7.15;;;4.05;;
2546;SDS011;1283;47.982;7.834;2023-04-03T01:41:49;5.32;;;3.80;;
2546;SDS011;1283;47.982;7.834;2023-04-03T01:44:16;4.88;;;3.53;;
2546;SDS011;1283;47.982;7.834;2023-04-03T01:46:43;5.22;;;3.65;;
2546;SDS011;1283;47.982;7.834;2023-04-03T01:49:10;6.57;;;3.80;;
2546;SDS011;1283;47.982;7.834;2023-04-03T01:51:37;5.65;;;3.30;;
2546;SDS011;1283;47.982;7.834;2023-04-03T01:54:03;8.15;;;3.25;;
2546;SDS011;1283;47.982;7.834;2023-04-03T01:56:30;8.10;;;3.45;;
2546;SDS011;1283;47.982;7.834;2023-04-03T01:58:56;5.05;;;2.97;;
2546;SDS011;1283;47.982;7.834;2023-04-03T02:01:23;5.18;;;3.35;;
2546;SDS011;1283;47.982;7.834;2023-04-03T02:03:50;6.97;;;3.38;;
2546;SDS011;1283;47.982;7.834;2023-04-03T02:06:18;3.55;;;2.78;;
2546;SDS011;1283;47.982;7.834;2023-04-03T02:08:45;4.43;;;3.33;;
2546;SDS011;1283;47.982;7.834;2023-04-03T02:11:11;8.15;;;2.95;;
2546;SDS011;1283;47.982;7.834;2023-04-03T02:13:37;9.07;;;3.25;;
2546;SDS011;1283;47.982;7.834;2023-04-03T02:16:07;4.90;;;3.10;;
2546;SDS011;1283;47.982;7.834;2023-04-03T02:18:35;6.75;;;3.40;;
2546;SDS011;1283;47.982;7.834;2023-04-03T02:21:01;5.10;;;3.13;;
2546;SDS011;1283;47.982;7.834;2023-04-03T02:23:29;4.65;;;3.13;;
2546;SDS011;1283;47.982;7.834;2023-04-03T02:26:02;4.55;;;3.15;;
2546;SDS011;1283;47.982;7.834;2023-04-03T02:28:29;4.95;;;3.25;;
2546;SDS011;1283;47.982;7.834;2023-04-03T02:30:56;5.32;;;3.83;;
2546;SDS011;1283;47.982;7.834;2023-04-03T02:33:22;4.50;;;2.90;;
2546;SDS011;1283;47.982;7.834;2023-04-03T02:35:51;6.72;;;3.33;;
2546;SDS011;1283;47.982;7.834;2023-04-03T02:38:18;5.25;;;3.20;;
2546;SDS011;1283;47.982;7.834;2023-04-03T02:40:46;4.68;;;3.30;;
2546;SDS011;1283;47.982;7.834;2023-04-03T02:43:13;6.03;;;3.42;;
2546;SDS011;1283;47.982;7.834;2023-04-03T02:45:39;4.95;;;3.22;;
2546;SDS011;1283;47.982;7.834;2023-04-03T02:48:06;6.55;;;3.65;;
2546;SDS011;1283;47.982;7.834;2023-04-03T02:50:32;7.05;;;3.80;;
2546;SDS011;1283;47.982;7.834;2023-04-03T02:52:59;6.60;;;4.18;;
2546;SDS011;1283;47.982;7.834;2023-04-03T02:55:25;4.47;;;3.13;;
2546;SDS011;1283;47.982;7.834;2023-04-03T02:57:53;6.10;;;3.70;;
2546;SDS011;1283;47.982;7.834;2023-04-03T03:00:20;6.00;;;4.03;;
2546;SDS011;1283;47.982;7.834;2023-04-03T03:02:48;7.00;;;3.88;;
2546;SDS011;1283;47.982;7.834;2023-04-03T03:05:15;5.25;;;3.47;;
2546;SDS011;1283;47.982;7.834;2023-04-03T03:07:41;7.28;;;4.40;;
2546;SDS011;1283;47.982;7.834;2023-04-03T03:10:08;7.38;;;4.30;;
2546;SDS011;1283;47.982;7.834;2023-04-03T03:12:35;5.80;;;3.90;;
2546;SDS011;1283;47.982;7.834;2023-04-03T03:15:03;7.47;;;4.05;;
2546;SDS011;1283;47.982;7.834;2023-04-03T03:17:30;6.95;;;3.63;;
2546;SDS011;1283;47.982;7.834;2023-04-03T03:19:56;6.43;;;3.40;;
2546;SDS011;1283;47.982;7.834;2023-04-03T03:22:22;5.03;;;3.22;;
2546;SDS011;1283;47.982;7.834;2023-04-03T03:24:49;6.68;;;3.83;;
2546;SDS011;1283;47.982;7.834;2023-04-03T03:27:15;7.13;;;3.88;;
2546;SDS011;1283;47.982;7.834;2023-04-03T03:29:42;7.10;;;3.42;;
2546;SDS011;1283;47.982;7.834;2023-04-03T03:32:10;8.50;;;3.83;;
2546;SDS011;1283;47.982;7.834;2023-04-03T03:34:36;5.68;;;3.78;;
2546;SDS011;1283;47.982;7.834;2023-04-03T03:37:03;7.70;;;3.75;;
2546;SDS011;1283;47.982;7.834;2023-04-03T03:39:29;5.15;;;3.50;;
2546;SDS011;1283;47.982;7.834;2023-04-03T03:41:56;4.55;;;3.20;;
2546;SDS011;1283;47.982;7.834;2023-04-03T03:44:22;5.53;;;3.63;;
2546;SDS011;1283;47.982;7.834;2023-04-03T03:46:49;6.20;;;3.78;;
2546;SDS011;1283;47.982;7.834;2023-04-03T03:49:16;7.35;;;3.13;;
2546;SDS011;1283;47.982;7.834;2023-04-03T03:51:43;5.25;;;3.53;;
2546;SDS011;1283;47.982;7.834;2023-04-03T03:54:09;4.47;;;3.10;;
2546;SDS011;1283;47.982;7.834;2023-04-03T03:56:36;4.63;;;3.45;;
2546;SDS011;1283;47.982;7.834;2023-04-03T03:59:02;5.45;;;3.75;;
2546;SDS011;1283;47.982;7.834;2023-04-03T04:01:29;5.85;;;3.33;;
2546;SDS011;1283;47.982;7.834;2023-04-03T04:03:55;5.72;;;3.25;;
2546;SDS011;1283;47.982;7.834;2023-04-03T04:06:23;6.38;;;3.45;;
2546;SDS011;1283;47.982;7.834;2023-04-03T04:08:50;5.70;;;3.92;;
2546;SDS011;1283;47.982;7.834;2023-04-03T04:11:16;6.05;;;4.10;;
2546;SDS011;1283;47.982;7.834;2023-04-03T04:13:43;5.13;;;3.25;;
2546;SDS011;1283;47.982;7.834;2023-04-03T04:16:10;6.15;;;3.63;;
2546;SDS011;1283;47.982;7.834;2023-04-03T04:18:36;6.57;;;3.85;;
2546;SDS011;1283;47.982;7.834;2023-04-03T04:21:03;4.82;;;3.30;;
2546;SDS011;1283;47.982;7.834;2023-04-03T04:23:30;5.05;;;3.10;;
2546;SDS011;1283;47.982;7.834;2023-04-03T04:25:57;6.00;;;3.60;;
2546;SDS011;1283;47.982;7.834;2023-04-03T04:28:23;6.40;;;3.50;;
2546;SDS011;1283;47.982;7.834;2023-04-03T04:30:50;5.88;;;3.42;;
2546;SDS011;1283;47.982;7.834;2023-04-03T04:33:16;5.07;;;3.28;;
2546;SDS011;1283;47.982;7.834;2023-04-03T04:35:43;4.25;;;3.10;;
2546;SDS011;1283;47.982;7.834;2023-04-03T04:38:09;4.05;;;3.08;;
2546;SDS011;1283;47.982;7.834;2023-04-03T04:40:37;7.38;;;3.35;;
2546;SDS011;1283;47.982;7.834;2023-04-03T04:43:03;3.38;;;2.53;;
2546;SDS011;1283;47.982;7.834;2023-04-03T04:45:30;5.13;;;3.15;;
2546;SDS011;1283;47.982;7.834;2023-04-03T04:47:56;4.25;;;2.92;;
2546;SDS011;1283;47.982;7.834;2023-04-03T04:50:23;3.40;;;2.70;;
2546;SDS011;1283;47.982;7.834;2023-04-03T04:52:49;4.35;;;2.95;;
2546;SDS011;1283;47.982;7.834;2023-04-03T04:55:16;3.45;;;2.58;;
2546;SDS011;1283;47.982;7.834;2023-04-03T04:57:44;3.70;;;2.83;;
2546;SDS011;1283;47.982;7.834;2023-04-03T05:00:10;4.90;;;3.22;;
2546;SDS011;1283;47.982;7.834;2023-04-03T05:02:38;4.50;;;2.90;;
2546;SDS011;1283;47.982;7.834;2023-04-03T05:05:04;4.40;;;2.95;;
2546;SDS011;1283;47.982;7.834;2023-04-03T05:07:31;4.63;;;2.97;;
2546;SDS011;1283;47.982;7.834;2023-04-03T05:09:58;3.95;;;3.00;;
2546;SDS011;1283;47.982;7.834;2023-04-03T05:12:24;6.72;;;3.70;;
2546;SDS011;1283;47.982;7.834;2023-04-03T05:14:52;4.05;;;2.67;;
2546;SDS011;1283;47.982;7.834;2023-04-03T05:17:18;5.90;;;3.35;;
2546;SDS011;1283;47.982;7.834;2023-04-03T05:19:45;3.97;;;2.92;;
2546;SDS011;1283;47.982;7.834;2023-04-03T05:22:11;4.18;;;3.05;;
2546;SDS011;1283;47.982;7.834;2023-04-03T05:24:38;7.40;;;2.97;;
2546;SDS011;1283;47.982;7.834;2023-04-03T05:27:04;4.53;;;3.10;;
2546;SDS011;1283;47.982;7.834;2023-04-03T05:29:31;5.18;;;3.33;;
2546;SDS011;1283;47.982;7.834;2023-04-03T05:31:58;5.03;;;3.35;;
2546;SDS011;1283;47.982;7.834;2023-04-03T05:34:25;4.63;;;3.25;;
2546;SDS011;1283;47.982;7.834;2023-04-03T05:36:51;8.30;;;3.50;;
2546;SDS011;1283;47.982;7.834;2023-04-03T05:39:18;3.67;;;2.67;;
2546;SDS011;1283;47.982;7.834;2023-04-03T05:41:44;9.93;;;3.30;;
2546;SDS011;1283;47.982;7.834;2023-04-03T05:44:11;5.10;;;3.00;;
2546;SDS011;1283;47.982;7.834;2023-04-03T05:46:37;5.53;;;3.30;;
2546;SDS011;1283;47.982;7.834;2023-04-03T05:49:05;4.13;;;2.60;;
2546;SDS011;1283;47.982;7.834;2023-04-03T05:51:33;7.30;;;3.15;;
2546;SDS011;1283;47.982;7.834;2023-04-03T05:54:03;3.90;;;2.95;;
2546;SDS011;1283;47.982;7.834;2023-04-03T05:56:34;5.88;;;3.88;;
2546;SDS011;1283;47.982;7.834;2023-04-03T05:59:00;4.60;;;3.35;;
2546;SDS011;1283;47.982;7.834;2023-04-03T06:01:27;4.35;;;3.40;;
2546;SDS011;1283;47.982;7.834;2023-04-03T06:03:53;5.20;;;3.15;;
2546;SDS011;1283;47.982;7.834;2023-04-03T06:06:22;7.07;;;3.92;;
2546;SDS011;1283;47.982;7.834;2023-04-03T06:08:48;4.55;;;3.03;;
2546;SDS011;1283;47.982;7.834;2023-04-03T06:11:15;4.47;;;2.95;;
2546;SDS011;1283;47.982;7.834;2023-04-03T06:13:41;8.52;;;4.15;;
2546;SDS011;1283;47.982;7.834;2023-04-03T06:16:08;5.70;;;3.60;;
2546;SDS011;1283;47.982;7.834;2023-04-03T06:18:35;7.00;;;3.53;;
2546;SDS011;1283;47.982;7.834;2023-04-03T06:21:01;5.30;;;3.80;;
2546;SDS011;1283;47.982;7.834;2023-04-03T06:23:29;6.43;;;3.20;;
2546;SDS011;1283;47.982;7.834;2023-04-03T06:25:57;4.88;;;3.47;;
2546;SDS011;1283;47.982;7.834;2023-04-03T06:28:24;4.50;;;3.40;;
2546;SDS011;1283;47.982;7.834;2023-04-03T06:30:51;5.72;;;3.90;;
2546;SDS011;1283;47.982;7.834;2023-04-03T06:33:17;6.13;;;3.90;;
2546;SDS011;1283;47.982;7.834;2023-04-03T06:35:44;6.57;;;3.80;;
2546;SDS011;1283;47.982;7.834;2023-04-03T06:38:11;6.10;;;3.65;;
2546;SDS011;1283;47.982;7.834;2023-04-03T06:40:39;6.82;;;3.45;;
2546;SDS011;1283;47.982;7.834;2023-04-03T06:43:05;5.63;;;2.58;;
2546;SDS011;1283;47.982;7.834;2023-04-03T06:45:32;2.92;;;2.13;;
2546;SDS011;1283;47.982;7.834;2023-04-03T06:47:58;6.10;;;3.13;;
2546;SDS011;1283;47.982;7.834;2023-04-03T06:50:25;4.80;;;3.15;;
2546;SDS011;1283;47.982;7.834;2023-04-03T06:52:51;4.63;;;3.10;;
2546;SDS011;1283;47.982;7.834;2023-04-03T06:55:18;5.72;;;3.33;;
2546;SDS011;1283;47.982;7.834;2023-04-03T06:57:46;3.05;;;2.03;;
2546;SDS011;1283;47.982;7.834;2023-04-03T07:00:12;5.65;;;2.53;;
2546;SDS011;1283;47.982;7.834;2023-04-03T07:02:41;2.63;;;2.13;;
2546;SDS011;1283;47.982;7.834;2023-04-03T07:05:07;3.40;;;2.28;;
2546;SDS011;1283;47.982;7.834;2023-04-03T07:07:34;3.90;;;2.33;;
2546;SDS011;1283;47.982;7.834;2023-04-03T07:10:00;5.75;;;2.88;;
2546;SDS011;1283;47.982;7.834;2023-04-03T07:12:27;3.65;;;2.15;;
2546;SDS011;1283;47.982;7.834;2023-04-03T07:14:55;7.82;;;2.35;;
2546;SDS011;1283;47.982;7.834;2023-04-03T07:17:21;2.70;;;1.88;;
2546;SDS011;1283;47.982;7.834;2023-04-03T07:19:48;2.80;;;1.90;;
2546;SDS011;1283;47.982;7.834;2023-04-03T07:22:14;3.55;;;2.42;;
2546;SDS011;1283;47.982;7.834;2023-04-03T07:24:41;3.17;;;2.13;;
2546;SDS011;1283;47.982;7.834;2023-04-03T07:27:07;3.42;;;2.20;;
2546;SDS011;1283;47.982;7.834;2023-04-03T07:29:35;4.78;;;2.50;;
2546;SDS011;1283;47.982;7.834;2023-04-03T07:32:03;3.75;;;2.25;;
2546;SDS011;1283;47.982;7.834;2023-04-03T07:34:30;3.35;;;2.10;;
2546;SDS011;1283;47.982;7.834;2023-04-03T07:36:57;3.65;;;2.38;;
2546;SDS011;1283;47.982;7.834;2023-04-03T07:39:24;3.25;;;2.42;;
2546;SDS011;1283;47.982;7.834;2023-04-03T07:41:50;3.22;;;2.38;;
2546;SDS011;1283;47.982;7.834;2023-04-03T07:44:17;4.10;;;2.50;;
2546;SDS011;1283;47.982;7.834;2023-04-03T07:46:43;4.63;;;2.50;;
2546;SDS011;1283;47.982;7.834;2023-04-03T07:49:11;3.92;;;2.40;;
2546;SDS011;1283;47.982;7.834;2023-04-03T07:51:38;3.92;;;2.70;;
2546;SDS011;1283;47.982;7.834;2023-04-03T07:54:04;3.72;;;2.70;;
2546;SDS011;1283;47.982;7.834;2023-04-03T07:56:31;4.30;;;2.00;;
2546;SDS011;1283;47.982;7.834;2023-04-03T07:58:58;4.40;;;2.70;;
2546;SDS011;1283;47.982;7.834;2023-04-03T08:01:25;3.58;;;2.55;;
2546;SDS011;1283;47.982;7.834;2023-04-03T08:03:51;4.82;;;2.90;;
2546;SDS011;1283;47.982;7.834;2023-04-03T08:06:19;4.65;;;2.72;;
2546;SDS011;1283;47.982;7.834;2023-04-03T08:08:45;4.47;;;2.60;;
2546;SDS011;1283;47.982;7.834;2023-04-03T08:11:12;3.35;;;2.45;;
2546;SDS011;1283;47.982;7.834;2023-04-03T08:13:38;6.70;;;2.63;;
2546;SDS011;1283;47.982;7.834;2023-04-03T08:16:07;3.65;;;2.78;;
2546;SDS011;1283;47.982;7.834;2023-04-03T08:18:34;5.25;;;3.08;;
2546;SDS011;1283;47.982;7.834;2023-04-03T08:21:02;4.00;;;2.90;;
2546;SDS011;1283;47.982;7.834;2023-04-03T08:23:33;3.83;;;2.72;;
2546;SDS011;1283;47.982;7.834;2023-04-03T08:26:04;4.10;;;2.78;;
2546;SDS011;1283;47.982;7.834;2023-04-03T08:28:31;4.97;;;3.03;;
2546;SDS011;1283;47.982;7.834;2023-04-03T08:31:01;5.10;;;2.58;;
2546;SDS011;1283;47.982;7.834;2023-04-03T08:33:29;10.70;;;4.40;;
2546;SDS011;1283;47.982;7.834;2023-04-03T08:35:55;7.43;;;4.47;;
2546;SDS011;1283;47.982;7.834;2023-04-03T08:38:22;5.70;;;3.40;;
2546;SDS011;1283;47.982;7.834;2023-04-03T08:41:00;4.13;;;3.25;;
2546;SDS011;1283;47.982;7.834;2023-04-03T08:43:30;6.55;;;3.53;;
2546;SDS011;1283;47.982;7.834;2023-04-03T08:46:02;4.45;;;3.17;;
2546;SDS011;1283;47.982;7.834;2023-04-03T08:48:32;4.78;;;3.40;;
2546;SDS011;1283;47.982;7.834;2023-04-03T08:51:02;5.38;;;3.90;;
2546;SDS011;1283;47.982;7.834;2023-04-03T08:53:32;3.75;;;2.80;;
2546;SDS011;1283;47.982;7.834;2023-04-03T08:56:02;4.80;;;3.47;;
2546;SDS011;1283;47.982;7.834;2023-04-03T08:58:33;4.60;;;3.00;;
2546;SDS011;1283;47.982;7.834;2023-04-03T09:01:03;4.40;;;3.13;;
2546;SDS011;1283;47.982;7.834;2023-04-03T09:03:34;7.47;;;3.38;;
2546;SDS011;1283;47.982;7.834;2023-04-03T09:06:03;4.85;;;3.50;;
2546;SDS011;1283;47.982;7.834;2023-04-03T09:08:31;4.88;;;3.15;;
2546;SDS011;1283;47.982;7.834;2023-04-03T09:11:09;5.60;;;2.95;;
2546;SDS011;1283;47.982;7.834;2023-04-03T09:13:41;4.70;;;3.25;;
2546;SDS011;1283;47.982;7.834;2023-04-03T09:16:15;5.88;;;3.33;;
2546;SDS011;1283;47.982;7.834;2023-04-03T09:18:48;5.70;;;3.58;;
2546;SDS011;1283;47.982;7.834;2023-04-03T09:21:20;4.95;;;2.78;;
2546;SDS011;1283;47.982;7.834;2023-04-03T09:23:49;5.22;;;2.88;;
2546;SDS011;1283;47.982;7.834;2023-04-03T09:26:18;5.68;;;2.90;;
2546;SDS011;1283;47.982;7.834;2023-04-03T09:28:47;6.80;;;3.28;;
2546;SDS011;1283;47.982;7.834;2023-04-03T09:31:16;4.22;;;3.10;;
2546;SDS011;1283;47.982;7.834;2023-04-03T09:33:45;4.57;;;3.20;;
2546;SDS011;1283;47.982;7.834;2023-04-03T09:36:12;7.97;;;3.75;;
2546;SDS011;1283;47.982;7.834;2023-04-03T09:38:39;4.28;;;2.85;;
2546;SDS011;1283;47.982;7.834;2023-04-03T09:41:06;5.85;;;3.47;;
2546;SDS011;1283;47.982;7.834;2023-04-03T09:43:35;5.43;;;2.95;;
2546;SDS011;1283;47.982;7.834;2023-04-03T09:46:16;4.57;;;2.90;;
2546;SDS011;1283;47.982;7.834;2023-04-03T09:48:55;3.92;;;2.65;;
2546;SDS011;1283;47.982;7.834;2023-04-03T09:51:24;3.35;;;2.20;;
2546;SDS011;1283;47.982;7.834;2023-04-03T09:53:52;3.53;;;2.13;;
2546;SDS011;1283;47.982;7.834;2023-04-03T09:56:20;3.30;;;2.30;;
2546;SDS011;1283;47.982;7.834;2023-04-03T09:58:50;2.90;;;2.08;;
2546;SDS011;1283;47.982;7.834;2023-04-03T10:01:22;3.95;;;2.20;;
2546;SDS011;1283;47.982;7.834;2023-04-03T10:04:02;3.40;;;1.95;;
2546;SDS011;1283;47.982;7.834;2023-04-03T10:06:31;2.95;;;1.83;;
2546;SDS011;1283;47.982;7.834;2023-04-03T10:09:01;4.30;;;2.13;;
2546;SDS011;1283;47.982;7.834;2023-04-03T10:11:30;4.28;;;2.00;;
2546;SDS011;1283;47.982;7.834;2023-04-03T10:13:58;3.65;;;2.00;;
2546;SDS011;1283;47.982;7.834;2023-04-03T10:16:27;3.38;;;1.92;;
2546;SDS011;1283;47.982;7.834;2023-04-03T10:19:02;3.30;;;2.10;;
2546;SDS011;1283;47.982;7.834;2023-04-03T10:21:35;2.97;;;2.35;;
2546;SDS011;1283;47.982;7.834;2023-04-03T10:24:09;2.35;;;1.80;;
2546;SDS011;1283;47.982;7.834;2023-04-03T10:26:39;3.72;;;2.22;;
2546;SDS011;1283;47.982;7.834;2023-04-03T10:29:14;2.97;;;1.80;;
2546;SDS011;1283;47.982;7.834;2023-04-03T10:31:46;3.42;;;1.92;;
2546;SDS011;1283;47.982;7.834;2023-04-03T10:34:18;3.20;;;1.88;;
2546;SDS011;1283;47.982;7.834;2023-04-03T10:36:49;3.13;;;1.98;;
2546;SDS011;1283;47.982;7.834;2023-04-03T10:39:22;3.67;;;2.10;;
2546;SDS011;1283;47.982;7.834;2023-04-03T10:41:56;2.30;;;1.70;;
2546;SDS011;1283;47.982;7.834;2023-04-03T10:44:31;2.30;;;1.75;;
2546;SDS011;1283;47.982;7.834;2023-04-03T10:47:05;6.13;;;1.90;;
2546;SDS011;1283;47.982;7.834;2023-04-03T10:49:36;3.03;;;1.98;;
2546;SDS011;1283;47.982;7.834;2023-04-03T10:52:12;3.10;;;1.95;;
2546;SDS011;1283;47.982;7.834;2023-04-03T10:54:41;4.55;;;2.65;;
2546;SDS011;1283;47.982;7.834;2023-04-03T10:57:13;4.43;;;2.78;;
2546;SDS011;1283;47.982;7.834;2023-04-03T10:59:43;4.93;;;1.98;;
2546;SDS011;1283;47.982;7.834;2023-04-03T11:02:13;2.63;;;1.77;;
2546;SDS011;1283;47.982;7.834;2023-04-03T11:04:44;6.82;;;2.20;;
2546;SDS011;1283;47.982;7.834;2023-04-03T11:07:12;1.90;;;1.70;;
2546;SDS011;1283;47.982;7.834;2023-04-03T11:09:42;3.30;;;2.05;;
2546;SDS011;1283;47.982;7.834;2023-04-03T11:12:11;2.83;;;2.10;;
2546;SDS011;1283;47.982;7.834;2023-04-03T11:14:39;2.35;;;1.73;;
2546;SDS011;1283;47.982;7.834;2023-04-03T11:17:11;3.15;;;2.17;;
2546;SDS011;1283;47.982;7.834;2023-04-03T11:19:47;3.88;;;1.90;;
2546;SDS011;1283;47.982;7.834;2023-04-03T11:22:18;4.80;;;1.95;;
2546;SDS011;1283;47.982;7.834;2023-04-03T11:24:51;2.60;;;1.98;;
2546;SDS011;1283;47.982;7.834;2023-04-03T11:27:23;2.30;;;1.65;;
2546;SDS011;1283;47.982;7.834;2023-04-03T11:29:52;2.55;;;1.65;;
2546;SDS011;1283;47.982;7.834;2023-04-03T11:32:34;3.00;;;2.08;;
2546;SDS011;1283;47.982;7.834;2023-04-03T11:35:14;3.10;;;2.10;;
2546;SDS011;1283;47.982;7.834;2023-04-03T11:37:41;3.90;;;2.20;;
2546;SDS011;1283;47.982;7.834;2023-04-03T11:50:38;4.05;;;2.22;;
2546;SDS011;1283;47.982;7.834;2023-04-03T11:53:26;4.90;;;2.22;;
2546;SDS011;1283;47.982;7.834;2023-04-03T11:55:56;3.08;;;2.08;;
2546;SDS011;1283;47.982;7.834;2023-04-03T11:58:25;2.85;;;2.20;;
2546;SDS011;1283;47.982;7.834;2023-04-03T12:01:08;3.45;;;2.00;;
2546;SDS011;1283;47.982;7.834;2023-04-03T12:12:55;3.67;;;1.90;;
2546;SDS011;1283;47.982;7.834;2023-04-03T12:21:14;2.90;;;2.17;;
2546;SDS011;1283;47.982;7.834;2023-04-03T12:26:50;2.65;;;1.95;;
2546;SDS011;1283;47.982;7.834;2023-04-03T12:29:29;4.68;;;2.22;;
2546;SDS011;1283;47.982;7.834;2023-04-03T12:32:04;6.15;;;2.33;;
2546;SDS011;1283;47.982;7.834;2023-04-03T12:34:48;3.85;;;2.20;;
2546;SDS011;1283;47.982;7.834;2023-04-03T12:37:27;3.33;;;2.22;;
2546;SDS011;1283;47.982;7.834;2023-04-03T12:40:15;3.50;;;2.35;;
2546;SDS011;1283;47.982;7.834;2023-04-03T12:45:44;2.85;;;2.33;;
2546;SDS011;1283;47.982;7.834;2023-04-03T12:48:14;2.55;;;1.70;;
2546;SDS011;1283;47.982;7.834;2023-04-03T12:50:41;2.85;;;2.28;;
2546;SDS011;1283;47.982;7.834;2023-04-03T12:53:11;3.28;;;2.00;;
2546;SDS011;1283;47.982;7.834;2023-04-03T12:55:40;3.80;;;2.40;;
2546;SDS011;1283;47.982;7.834;2023-04-03T12:58:13;6.05;;;2.55;;
2546;SDS011;1283;47.982;7.834;2023-04-03T13:00:45;3.50;;;2.15;;
2546;SDS011;1283;47.982;7.834;2023-04-03T13:03:21;3.88;;;2.10;;
2546;SDS011;1283;47.982;7.834;2023-04-03T13:05:49;3.05;;;2.03;;
2546;SDS011;1283;47.982;7.834;2023-04-03T13:08:15;3.53;;;2.25;;
2546;SDS011;1283;47.982;7.834;2023-04-03T13:10:49;2.45;;;1.80;;
2546;SDS011;1283;47.982;7.834;2023-04-03T13:13:18;6.95;;;2.10;;
2546;SDS011;1283;47.982;7.834;2023-04-03T13:15:45;3.25;;;2.30;;
2546;SDS011;1283;47.982;7.834;2023-04-03T13:18:24;5.72;;;2.85;;
2546;SDS011;1283;47.982;7.834;2023-04-03T13:20:57;5.07;;;2.40;;
2546;SDS011;1283;47.982;7.834;2023-04-03T13:23:27;3.92;;;2.35;;
2546;SDS011;1283;47.982;7.834;2023-04-03T13:25:55;2.80;;;2.03;;
2546;SDS011;1283;47.982;7.834;2023-04-03T13:28:26;3.72;;;2.25;;
2546;SDS011;1283;47.982;7.834;2023-04-03T13:31:00;3.08;;;2.15;;
2546;SDS011;1283;47.982;7.834;2023-04-03T13:33:31;2.53;;;2.08;;
2546;SDS011;1283;47.982;7.834;2023-04-03T13:36:03;4.93;;;2.50;;
2546;SDS011;1283;47.982;7.834;2023-04-03T13:38:31;5.50;;;3.33;;
2546;SDS011;1283;47.982;7.834;2023-04-03T13:41:01;4.22;;;2.30;;
2546;SDS011;1283;47.982;7.834;2023-04-03T13:43:30;4.38;;;2.40;;
2546;SDS011;1283;47.982;7.834;2023-04-03T13:45:59;4.88;;;2.40;;
2546;SDS011;1283;47.982;7.834;2023-04-03T13:48:35;4.63;;;2.03;;
2546;SDS011;1283;47.982;7.834;2023-04-03T13:51:05;4.05;;;1.83;;
2546;SDS011;1283;47.982;7.834;2023-04-03T13:53:44;4.03;;;2.22;;
2546;SDS011;1283;47.982;7.834;2023-04-03T13:56:18;4.57;;;2.30;;
2546;SDS011;1283;47.982;7.834;2023-04-03T13:58:53;3.35;;;2.10;;
2546;SDS011;1283;47.982;7.834;2023-04-03T14:01:26;3.58;;;2.22;;
2546;SDS011;1283;47.982;7.834;2023-04-03T14:04:09;4.60;;;2.10;;
2546;SDS011;1283;47.982;7.834;2023-04-03T14:06:38;2.33;;;1.90;;
2546;SDS011;1283;47.982;7.834;2023-04-03T14:09:05;2.95;;;2.13;;
2546;SDS011;1283;47.982;7.834;2023-04-03T14:11:34;3.35;;;1.98;;
2546;SDS011;1283;47.982;7.834;2023-04-03T14:14:02;2.95;;;1.92;;
2546;SDS011;1283;47.982;7.834;2023-04-03T14:16:37;4.78;;;1.95;;
2546;SDS011;1283;47.982;7.834;2023-04-03T14:19:05;2.03;;;1.55;;
2546;SDS011;1283;47.982;7.834;2023-04-03T14:21:33;3.88;;;1.95;;
2546;SDS011;1283;47.982;7.834;2023-04-03T14:24:00;2.92;;;1.85;;
2546;SDS011;1283;47.982;7.834;2023-04-03T14:26:27;4.30;;;2.45;;
2546;SDS011;1283;47.982;7.834;2023-04-03T14:28:57;6.00;;;2.50;;
2546;SDS011;1283;47.982;7.834;2023-04-03T14:31:23;5.82;;;2.38;;
2546;SDS011;1283;47.982;7.834;2023-04-03T14:33:50;3.70;;;2.25;;
2546;SDS011;1283;47.982;7.834;2023-04-03T14:36:18;2.55;;;1.70;;
2546;SDS011;1283;47.982;7.834;2023-04-03T14:38:47;2.85;;;2.00;;
2546;SDS011;1283;47.982;7.834;2023-04-03T14:41:15;4.07;;;2.65;;
2546;SDS011;1283;47.982;7.834;2023-04-03T14:43:43;4.50;;;2.30;;
2546;SDS011;1283;47.982;7.834;2023-04-03T14:46:13;8.80;;;5.03;;
2546;SDS011;1283;47.982;7.834;2023-04-03T14:48:41;5.03;;;2.30;;
2546;SDS011;1283;47.982;7.834;2023-04-03T14:51:09;5.03;;;2.00;;
2546;SDS011;1283;47.982;7.834;2023-04-03T14:53:36;4.93;;;2.33;;
2546;SDS011;1283;47.982;7.834;2023-04-03T14:56:04;3.95;;;1.92;;
2546;SDS011;1283;47.982;7.834;2023-04-03T14:58:35;3.17;;;1.90;;
2546;SDS011;1283;47.982;7.834;2023-04-03T15:01:02;3.28;;;2.00;;
2546;SDS011;1283;47.982;7.834;2023-04-03T15:03:30;5.35;;;1.90;;
2546;SDS011;1283;47.982;7.834;2023-04-03T15:05:57;4.45;;;2.55;;
2546;SDS011;1283;47.982;7.834;2023-04-03T15:08:25;4.75;;;2.70;;
2546;SDS011;1283;47.982;7.834;2023-04-03T15:10:54;2.70;;;2.03;;
2546;SDS011;1283;47.982;7.834;2023-04-03T15:13:21;5.47;;;2.47;;
2546;SDS011;1283;47.982;7.834;2023-04-03T15:15:48;4.35;;;2.20;;
2546;SDS011;1283;47.982;7.834;2023-04-03T15:18:16;6.57;;;3.10;;
2546;SDS011;1283;47.982;7.834;2023-04-03T15:20:45;4.65;;;2.17;;
2546;SDS011;1283;47.982;7.834;2023-04-03T15:23:13;5.43;;;2.47;;
2546;SDS011;1283;47.982;7.834;2023-04-03T15:25:40;3.78;;;2.65;;
2546;SDS011;1283;47.982;7.834;2023-04-03T15:28:08;8.35;;;2.70;;
2546;SDS011;1283;47.982;7.834;2023-04-03T15:30:36;3.80;;;2.08;;
2546;SDS011;1283;47.982;7.834;2023-04-03T15:33:03;3.55;;;2.03;;
2546;SDS011;1283;47.982;7.834;2023-04-03T15:35:29;5.55;;;1.75;;
2546;SDS011;1283;47.982;7.834;2023-04-03T15:37:57;6.20;;;1.83;;
2546;SDS011;1283;47.982;7.834;2023-04-03T15:40:23;3.45;;;2.00;;
2546;SDS011;1283;47.982;7.834;2023-04-03T15:42:50;5.35;;;2.30;;
2546;SDS011;1283;47.982;7.834;2023-04-03T15:45:17;5.97;;;2.20;;
2546;SDS011;1283;47.982;7.834;2023-04-03T15:47:43;4.70;;;2.60;;
2546;SDS011;1283;47.982;7.834;2023-04-03T15:50:10;2.47;;;1.83;;
2546;SDS011;1283;47.982;7.834;2023-04-03T15:52:36;2.38;;;2.00;;
2546;SDS011;1283;47.982;7.834;2023-04-03T15:55:04;8.57;;;2.20;;